Time;durP1;ratioP1;P1;durP2;ratioP2;P2;SDS_P1;SDS_P2;PMS_P1;PMS_P2;Temp;Humidity;BMP_temperature;BMP_pressure;BME280_temperature;BME280_humidity;BME280_pressure;Samples;Min_cycle;Max_cycle;Signal;HPM_P1;HPM_P2
2024/03/04 00:02:19;;;;;;;;;50.75;41.75;;;;;;;;5034414;28;45308;-78
2024/03/04 00:04:44;;;;;;;;;50.50;42.75;;;;;;;;5031557;28;45412;-79
2024/03/04 00:07:09;;;;;;;;;56.25;44.00;;;;;;;;5033880;28;45272;-79
2024/03/04 00:09:34;;;;;;;;;49.25;41.25;;;;;;;;5031071;28;46207;-79
2024/03/04 00:12:00;;;;;;;;;55.75;45.00;;;;;;;;5033458;28;45283;-79
2024/03/04 00:14:25;;;;;;;;;57.75;48.00;;;;;;;;5031912;28;45361;-79
2024/03/04 00:16:50;;;;;;;;;57.00;47.75;;;;;;;;5026358;28;45415;-79
2024/03/04 00:19:18;;;;;;;;;54.50;46.00;;;;;;;;5017539;28;47944;-79
2024/03/04 00:21:44;;;;;;;;;57.00;46.25;;;;;;;;5036690;28;45269;-78
2024/03/04 00:24:09;;;;;;;;;57.50;46.75;;;;;;;;5035398;28;45225;-79
2024/03/04 00:26:35;;;;;;;;;57.50;46.25;;;;;;;;5012315;28;45913;-79
2024/03/04 00:29:00;;;;;;;;;59.00;47.75;;;;;;;;5030285;28;45316;-78
2024/03/04 00:31:25;;;;;;;;;57.25;47.25;;;;;;;;5012233;28;45250;-79
2024/03/04 00:33:52;;;;;;;;;58.00;49.75;;;;;;;;5036572;28;45312;-79
2024/03/04 00:36:21;;;;;;;;;60.75;49.50;;;;;;;;5031027;28;45383;-79
2024/03/04 00:38:46;;;;;;;;;57.75;46.75;;;;;;;;5033498;28;45581;-78
2024/03/04 00:41:11;;;;;;;;;63.75;50.75;;;;;;;;5015877;28;45269;-79
2024/03/04 00:43:37;;;;;;;;;54.00;46.25;;;;;;;;5030902;28;45498;-79
2024/03/04 00:46:02;;;;;;;;;58.50;46.75;;;;;;;;5012702;28;45970;-79
2024/03/04 00:48:27;;;;;;;;;62.75;49.75;;;;;;;;5009614;28;47171;-78
2024/03/04 00:50:52;;;;;;;;;58.00;47.75;;;;;;;;5028790;28;45310;-79
2024/03/04 00:53:18;;;;;;;;;57.25;46.00;;;;;;;;5028461;28;45296;-79
2024/03/04 00:55:43;;;;;;;;;53.75;44.75;;;;;;;;4988584;28;45968;-78
2024/03/04 00:58:09;;;;;;;;;54.75;45.25;;;;;;;;5027773;28;45294;-78
2024/03/04 01:00:34;;;;;;;;;56.75;46.00;;;;;;;;5027430;28;45275;-79
2024/03/04 01:02:59;;;;;;;;;56.00;45.50;;;;;;;;5030890;28;45357;-79
2024/03/04 01:05:24;;;;;;;;;54.25;43.50;;;;;;;;5033227;28;45306;-78
2024/03/04 01:07:50;;;;;;;;;53.25;43.25;;;;;;;;5032143;28;46348;-79
2024/03/04 01:10:16;;;;;;;;;52.75;45.00;;;;;;;;5024469;28;45408;-79
2024/03/04 01:12:41;;;;;;;;;15.50;14.00;;;;;;;;5008814;28;45350;-78
2024/03/04 01:15:07;;;;;;;;;57.00;46.25;;;;;;;;5025430;28;45239;-79
2024/03/04 01:17:35;;;;;;;;;55.50;43.50;;;;;;;;5004621;28;46835;-79
2024/03/04 01:20:02;;;;;;;;;53.50;45.50;;;;;;;;5012227;28;45278;-79
2024/03/04 01:22:28;;;;;;;;;54.50;45.00;;;;;;;;5010619;28;45257;-78
2024/03/04 01:24:54;;;;;;;;;58.75;47.50;;;;;;;;5008017;28;45499;-78
2024/03/04 01:27:20;;;;;;;;;52.00;44.00;;;;;;;;5006066;28;45119;-79
2024/03/04 01:29:45;;;;;;;;;53.75;45.00;;;;;;;;5011578;28;45306;-78
2024/03/04 01:32:10;;;;;;;;;52.00;42.50;;;;;;;;4990386;28;45326;-79
2024/03/04 01:34:39;;;;;;;;;53.25;44.50;;;;;;;;5004101;28;45247;-79
2024/03/04 01:37:04;;;;;;;;;53.25;44.50;;;;;;;;4987045;28;47079;-79
2024/03/04 01:39:29;;;;;;;;;53.25;45.25;;;;;;;;4985710;28;45781;-79
2024/03/04 01:41:54;;;;;;;;;57.50;45.25;;;;;;;;5011360;28;45400;-78
2024/03/04 01:44:20;;;;;;;;;55.00;46.25;;;;;;;;5005037;28;45253;-79
2024/03/04 01:46:45;;;;;;;;;58.50;46.25;;;;;;;;5005653;28;45293;-79
2024/03/04 01:49:11;;;;;;;;;37.50;33.25;;;;;;;;4988245;28;45297;-79
2024/03/04 01:51:37;;;;;;;;;56.00;45.50;;;;;;;;4989959;28;45380;-79
2024/03/04 01:54:03;;;;;;;;;58.00;46.75;;;;;;;;5003575;28;45306;-78
2024/03/04 01:56:30;;;;;;;;;60.75;50.00;;;;;;;;4993891;28;47287;-78
2024/03/04 01:58:55;;;;;;;;;45.50;41.50;;;;;;;;5012164;28;45282;-79
2024/03/04 02:01:21;;;;;;;;;51.75;44.00;;;;;;;;5033715;28;45491;-79
2024/03/04 02:03:47;;;;;;;;;49.00;42.50;;;;;;;;5016829;28;46105;-79
2024/03/04 02:06:13;;;;;;;;;42.75;38.50;;;;;;;;5036348;28;45550;-79
2024/03/04 02:08:38;;;;;;;;;44.00;40.50;;;;;;;;5016783;28;46226;-79
2024/03/04 02:11:04;;;;;;;;;52.25;43.00;;;;;;;;5035541;28;45376;-79
2024/03/04 02:13:31;;;;;;;;;39.50;36.50;;;;;;;;5019589;28;46083;-79
2024/03/04 02:15:56;;;;;;;;;52.75;42.75;;;;;;;;5016972;28;47582;-78
2024/03/04 02:18:21;;;;;;;;;50.75;43.25;;;;;;;;5032707;28;45413;-79
2024/03/04 02:20:47;;;;;;;;;49.50;42.50;;;;;;;;5037853;28;45342;-79
2024/03/04 02:23:12;;;;;;;;;58.00;46.00;;;;;;;;5018184;28;46307;-79
2024/03/04 02:25:38;;;;;;;;;50.75;43.25;;;;;;;;5015917;28;48253;-79
2024/03/04 02:28:03;;;;;;;;;48.00;43.00;;;;;;;;5020474;28;45747;-78
2024/03/04 02:30:32;;;;;;;;;45.50;40.50;;;;;;;;5037078;28;45555;-78
2024/03/04 02:32:58;;;;;;;;;48.00;41.75;;;;;;;;5036947;28;45241;-79
2024/03/04 02:35:27;;;;;;;;;42.25;35.50;;;;;;;;5033571;28;45405;-79
2024/03/04 02:37:52;;;;;;;;;42.75;38.50;;;;;;;;5035940;28;45339;-79
2024/03/04 02:40:17;;;;;;;;;43.25;39.75;;;;;;;;5034485;28;45305;-79
2024/03/04 02:42:42;;;;;;;;;46.50;41.00;;;;;;;;5035439;28;45306;-78
2024/03/04 02:45:08;;;;;;;;;45.75;40.75;;;;;;;;5017586;28;47345;-79
2024/03/04 02:47:33;;;;;;;;;41.00;38.00;;;;;;;;5018851;28;45250;-78
2024/03/04 02:49:58;;;;;;;;;45.00;39.25;;;;;;;;5014796;28;45429;-79
2024/03/04 02:52:23;;;;;;;;;39.50;37.00;;;;;;;;5015919;28;46200;-79
2024/03/04 02:54:49;;;;;;;;;46.25;42.25;;;;;;;;5035553;28;45329;-79
2024/03/04 02:57:15;;;;;;;;;38.75;36.50;;;;;;;;5008628;28;45363;-78
2024/03/04 02:59:42;;;;;;;;;43.50;39.00;;;;;;;;5016151;28;45405;-79
2024/03/04 03:02:08;;;;;;;;;52.25;43.25;;;;;;;;5013598;28;45573;-79
2024/03/04 03:04:33;;;;;;;;;43.00;39.25;;;;;;;;5009942;28;45495;-78
2024/03/04 03:06:58;;;;;;;;;44.75;39.75;;;;;;;;5010110;28;45495;-79
2024/03/04 03:09:23;;;;;;;;;53.75;42.50;;;;;;;;5010648;28;45446;-79
2024/03/04 03:11:49;;;;;;;;;43.25;39.25;;;;;;;;5011227;28;45503;-79
2024/03/04 03:14:15;;;;;;;;;44.00;40.25;;;;;;;;5010992;28;45475;-79
2024/03/04 03:16:40;;;;;;;;;44.75;39.50;;;;;;;;4992225;28;45387;-79
2024/03/04 03:19:05;;;;;;;;;36.50;34.00;;;;;;;;5010088;28;45325;-78
2024/03/04 03:21:31;;;;;;;;;41.00;39.25;;;;;;;;5011302;28;45282;-79
2024/03/04 03:23:56;;;;;;;;;27.50;27.50;;;;;;;;5011245;28;46099;-79
2024/03/04 03:26:25;;;;;;;;;35.75;35.75;;;;;;;;5011010;28;45317;-78
2024/03/04 03:28:50;;;;;;;;;46.25;40.25;;;;;;;;5010382;28;45238;-79
2024/03/04 03:31:18;;;;;;;;;43.25;38.75;;;;;;;;5010861;28;45347;-79
2024/03/04 03:33:43;;;;;;;;;44.75;40.25;;;;;;;;4991260;28;46686;-79
2024/03/04 03:36:08;;;;;;;;;47.75;41.75;;;;;;;;4991401;28;45811;-79
2024/03/04 03:38:33;;;;;;;;;46.75;41.50;;;;;;;;5008934;28;45253;-78
2024/03/04 03:40:59;;;;;;;;;44.00;40.00;;;;;;;;5009154;28;45642;-78
2024/03/04 03:43:24;;;;;;;;;48.25;40.50;;;;;;;;5008505;28;45325;-78
2024/03/04 03:45:49;;;;;;;;;40.00;38.50;;;;;;;;5008546;28;45377;-78
2024/03/04 03:48:18;;;;;;;;;45.00;39.50;;;;;;;;4989126;28;45322;-79
2024/03/04 03:50:46;;;;;;;;;34.25;34.25;;;;;;;;4990161;28;46225;-79
2024/03/04 03:53:12;;;;;;;;;40.00;38.25;;;;;;;;5007548;28;45964;-79
2024/03/04 03:55:37;;;;;;;;;38.25;35.25;;;;;;;;5013197;28;45235;-79
2024/03/04 03:58:03;;;;;;;;;39.75;36.25;;;;;;;;5022092;28;45380;-79
2024/03/04 04:00:29;;;;;;;;;41.50;35.75;;;;;;;;5010256;28;46293;-79
2024/03/04 04:02:54;;;;;;;;;37.00;34.50;;;;;;;;5030106;28;45472;-79
2024/03/04 04:05:19;;;;;;;;;38.25;34.50;;;;;;;;5025605;28;45321;-79
2024/03/04 04:07:45;;;;;;;;;37.75;35.25;;;;;;;;5011047;28;45470;-79
2024/03/04 04:10:10;;;;;;;;;39.50;35.25;;;;;;;;5031258;28;45475;-79
2024/03/04 04:12:35;;;;;;;;;33.50;32.50;;;;;;;;5031468;28;45478;-79
2024/03/04 04:15:01;;;;;;;;;33.50;31.75;;;;;;;;5029625;28;45324;-79
2024/03/04 04:17:26;;;;;;;;;37.25;34.75;;;;;;;;5010943;28;45249;-79
2024/03/04 04:19:51;;;;;;;;;41.25;38.00;;;;;;;;5011221;28;45869;-79
2024/03/04 04:22:16;;;;;;;;;42.75;37.75;;;;;;;;5011596;28;48059;-78
2024/03/04 04:24:41;;;;;;;;;38.25;35.25;;;;;;;;5007021;28;45371;-79
2024/03/04 04:27:07;;;;;;;;;39.25;37.50;;;;;;;;5028912;28;45354;-79
2024/03/04 04:29:33;;;;;;;;;43.25;39.50;;;;;;;;5010585;28;46987;-79
2024/03/04 04:31:59;;;;;;;;;41.00;37.00;;;;;;;;5011134;28;47493;-79
2024/03/04 04:34:24;;;;;;;;;49.50;40.00;;;;;;;;5029727;28;45281;-79
2024/03/04 04:36:50;;;;;;;;;16.50;11.50;;;;;;;;5010499;28;45277;-78
2024/03/04 04:39:15;;;;;;;;;43.00;38.75;;;;;;;;5012504;28;45328;-79
2024/03/04 04:41:40;;;;;;;;;47.25;40.50;;;;;;;;5009117;28;46296;-79
2024/03/04 04:44:06;;;;;;;;;46.50;40.00;;;;;;;;4986902;28;45581;-79
2024/03/04 04:46:31;;;;;;;;;43.75;39.75;;;;;;;;5008362;28;45324;-78
2024/03/04 04:48:57;;;;;;;;;41.25;37.00;;;;;;;;4990654;28;46305;-79
2024/03/04 04:51:22;;;;;;;;;43.00;39.75;;;;;;;;5008838;28;45388;-79
2024/03/04 04:53:47;;;;;;;;;44.25;39.25;;;;;;;;5006025;28;45332;-78
2024/03/04 04:56:19;;;;;;;;;44.25;40.25;;;;;;;;5000205;28;45368;-79
2024/03/04 04:58:44;;;;;;;;;45.75;41.25;;;;;;;;5008789;28;46916;-79
2024/03/04 05:01:10;;;;;;;;;46.50;39.75;;;;;;;;5024228;28;45925;-79
2024/03/04 05:03:35;;;;;;;;;48.00;39.75;;;;;;;;5005407;28;45291;-79
2024/03/04 05:06:01;;;;;;;;;46.00;39.75;;;;;;;;5025657;28;45242;-79
2024/03/04 05:08:27;;;;;;;;;46.50;38.00;;;;;;;;5004628;28;45862;-79
2024/03/04 05:10:52;;;;;;;;;48.50;41.00;;;;;;;;5027665;28;45336;-79
2024/03/04 05:13:17;;;;;;;;;46.00;39.25;;;;;;;;5009452;28;45234;-78
2024/03/04 05:15:43;;;;;;;;;42.25;39.50;;;;;;;;5023611;28;45400;-78
2024/03/04 05:18:09;;;;;;;;;41.50;38.75;;;;;;;;5005049;28;47545;-79
2024/03/04 05:20:34;;;;;;;;;48.75;41.75;;;;;;;;5021314;28;46609;-79
2024/03/04 05:23:00;;;;;;;;;43.00;37.25;;;;;;;;5021673;28;45353;-79
2024/03/04 05:25:25;;;;;;;;;47.00;39.50;;;;;;;;5021397;28;45313;-78
2024/03/04 05:27:50;;;;;;;;;38.75;36.50;;;;;;;;5004850;28;46079;-78
2024/03/04 05:30:15;;;;;;;;;27.75;26.75;;;;;;;;5023394;28;46293;-78
2024/03/04 05:32:41;;;;;;;;;44.50;36.25;;;;;;;;4994602;28;45719;-79
2024/03/04 05:35:07;;;;;;;;;40.50;39.25;;;;;;;;5003862;28;45495;-81
2024/03/04 05:37:33;;;;;;;;;39.50;37.00;;;;;;;;5002183;28;45396;-79
2024/03/04 05:39:58;;;;;;;;;37.00;35.50;;;;;;;;4984502;28;47249;-79
2024/03/04 05:42:23;;;;;;;;;41.75;39.25;;;;;;;;5002455;28;45374;-79
2024/03/04 05:44:49;;;;;;;;;43.75;38.25;;;;;;;;5005067;28;45362;-81
2024/03/04 05:47:14;;;;;;;;;40.50;36.50;;;;;;;;5003346;28;45401;-80
2024/03/04 05:50:03;;;;;;;;;45.75;40.75;;;;;;;;4987734;28;47516;-78
2024/03/04 05:52:29;;;;;;;;;40.50;38.25;;;;;;;;5003092;28;45226;-82
2024/03/04 05:54:54;;;;;;;;;46.50;39.00;;;;;;;;5002521;28;45341;-81
2024/03/04 05:57:19;;;;;;;;;44.25;40.00;;;;;;;;4992690;28;46349;-78
2024/03/04 05:59:44;;;;;;;;;46.00;39.25;;;;;;;;5013660;28;47304;-79
2024/03/04 06:02:10;;;;;;;;;46.00;40.25;;;;;;;;5032519;28;44710;-80
2024/03/04 06:04:35;;;;;;;;;51.25;41.75;;;;;;;;4997173;28;45426;-78
2024/03/04 06:07:00;;;;;;;;;50.50;42.75;;;;;;;;5005414;28;45298;-84
2024/03/04 06:09:26;;;;;;;;;40.75;37.75;;;;;;;;4984286;28;47117;-82
2024/03/04 06:11:52;;;;;;;;;36.25;32.50;;;;;;;;5002057;28;45381;-85
2024/03/04 06:14:18;;;;;;;;;43.00;37.00;;;;;;;;4985047;28;45332;-85
2024/03/04 06:16:43;;;;;;;;;37.25;35.25;;;;;;;;5000888;28;45410;-85
2024/03/04 06:19:08;;;;;;;;;36.75;34.25;;;;;;;;4983341;28;48167;-85
2024/03/04 06:21:35;;;;;;;;;31.75;31.25;;;;;;;;4983675;28;45397;-85
2024/03/04 06:24:00;;;;;;;;;32.25;30.00;;;;;;;;5002071;28;45232;-85
2024/03/04 06:26:26;;;;;;;;;34.00;30.75;;;;;;;;4983786;28;46258;-85
2024/03/04 06:28:51;;;;;;;;;41.50;36.50;;;;;;;;4983533;28;47144;-85
2024/03/04 06:31:16;;;;;;;;;15.00;11.50;;;;;;;;4984000;28;45181;-85
2024/03/04 06:33:41;;;;;;;;;34.25;32.75;;;;;;;;4983864;28;45214;-86
2024/03/04 06:36:07;;;;;;;;;34.25;32.00;;;;;;;;4984025;28;46379;-84
2024/03/04 06:38:32;;;;;;;;;36.25;32.00;;;;;;;;4983988;28;47394;-85
2024/03/04 06:40:58;;;;;;;;;34.75;34.25;;;;;;;;5001497;28;45418;-85
2024/03/04 06:43:23;;;;;;;;;33.00;29.50;;;;;;;;5001607;28;45495;-85
2024/03/04 06:45:48;;;;;;;;;34.00;30.50;;;;;;;;5001568;28;45414;-85
2024/03/04 06:48:13;;;;;;;;;31.75;31.75;;;;;;;;4983508;28;47074;-85
2024/03/04 06:50:38;;;;;;;;;37.50;36.75;;;;;;;;4983680;28;45649;-85
2024/03/04 06:53:04;;;;;;;;;27.75;26.00;;;;;;;;5001639;28;45171;-84
2024/03/04 06:55:29;;;;;;;;;35.75;32.75;;;;;;;;4983511;28;46296;-84
2024/03/04 06:57:54;;;;;;;;;34.50;31.25;;;;;;;;4993013;28;47169;-85
2024/03/04 07:00:21;;;;;;;;;34.25;32.00;;;;;;;;5003300;28;45341;-83
2024/03/04 07:02:46;;;;;;;;;33.50;33.50;;;;;;;;5003210;28;45443;-84
2024/03/04 07:05:11;;;;;;;;;32.25;27.75;;;;;;;;5002902;28;47012;-84
2024/03/04 07:07:36;;;;;;;;;32.75;32.75;;;;;;;;5003273;28;47401;-84
2024/03/04 07:10:02;;;;;;;;;45.75;39.50;;;;;;;;5011184;28;45396;-86
2024/03/04 07:12:27;;;;;;;;;45.50;39.25;;;;;;;;4983173;28;45462;-85
2024/03/04 07:14:52;;;;;;;;;53.50;44.75;;;;;;;;4984188;28;47111;-80
2024/03/04 07:17:17;;;;;;;;;52.75;44.25;;;;;;;;4981873;28;47289;-79
2024/03/04 07:19:42;;;;;;;;;48.75;41.75;;;;;;;;5000578;28;45349;-79
2024/03/04 07:22:08;;;;;;;;;51.25;42.50;;;;;;;;5001060;28;45539;-77
2024/03/04 07:24:33;;;;;;;;;46.25;41.50;;;;;;;;4982932;28;46423;-79
2024/03/04 07:26:58;;;;;;;;;57.25;44.75;;;;;;;;4982653;28;47080;-78
2024/03/04 07:29:23;;;;;;;;;55.50;44.50;;;;;;;;4982581;28;45410;-79
2024/03/04 07:31:49;;;;;;;;;63.00;51.00;;;;;;;;5001984;28;45604;-79
2024/03/04 07:34:14;;;;;;;;;59.50;49.50;;;;;;;;5001846;28;45273;-79
2024/03/04 07:36:40;;;;;;;;;69.75;56.00;;;;;;;;5001132;28;45351;-79
2024/03/04 07:39:07;;;;;;;;;80.75;63.00;;;;;;;;5001306;28;45282;-79
2024/03/04 07:41:32;;;;;;;;;82.25;65.50;;;;;;;;5003749;28;45237;-80
2024/03/04 07:43:57;;;;;;;;;68.00;53.75;;;;;;;;4983200;28;47153;-80
2024/03/04 07:46:23;;;;;;;;;60.00;50.25;;;;;;;;4982419;28;48235;-81
2024/03/04 07:48:48;;;;;;;;;56.00;47.25;;;;;;;;4982169;28;45882;-80
2024/03/04 07:51:13;;;;;;;;;58.75;49.25;;;;;;;;5000532;28;45175;-78
2024/03/04 07:53:38;;;;;;;;;61.25;48.75;;;;;;;;5006946;28;45393;-80
2024/03/04 07:56:04;;;;;;;;;60.50;50.50;;;;;;;;4995254;28;47043;-79
2024/03/04 07:58:29;;;;;;;;;63.50;52.50;;;;;;;;5008724;28;45368;-79
2024/03/04 08:00:54;;;;;;;;;61.00;49.75;;;;;;;;5011757;28;45570;-80
2024/03/04 08:03:19;;;;;;;;;64.25;53.00;;;;;;;;5012035;28;47030;-79
2024/03/04 08:05:47;;;;;;;;;64.75;53.25;;;;;;;;5013127;28;48321;-80
2024/03/04 08:08:12;;;;;;;;;57.00;46.50;;;;;;;;5008895;28;45321;-80
2024/03/04 08:10:38;;;;;;;;;59.50;49.25;;;;;;;;5021021;28;45467;-80
2024/03/04 08:13:03;;;;;;;;;58.25;47.25;;;;;;;;5006842;28;47094;-80
2024/03/04 08:15:28;;;;;;;;;58.25;48.75;;;;;;;;5006002;28;47064;-80
2024/03/04 08:17:54;;;;;;;;;60.50;48.75;;;;;;;;5004198;28;45898;-80
2024/03/04 08:20:21;;;;;;;;;54.50;45.00;;;;;;;;5030614;28;45308;-80
2024/03/04 08:22:46;;;;;;;;;57.75;49.50;;;;;;;;5023989;28;45294;-80
2024/03/04 08:25:11;;;;;;;;;57.00;48.00;;;;;;;;5008493;28;47110;-80
2024/03/04 08:27:36;;;;;;;;;56.75;47.00;;;;;;;;5028693;28;45187;-80
2024/03/04 08:30:03;;;;;;;;;54.25;46.25;;;;;;;;5021161;28;45515;-76
2024/03/04 08:32:28;;;;;;;;;49.25;42.25;;;;;;;;5001531;28;46918;-80
2024/03/04 08:34:53;;;;;;;;;48.00;40.50;;;;;;;;5018684;28;45223;-79
2024/03/04 08:37:18;;;;;;;;;48.00;42.00;;;;;;;;5001547;28;45904;-81
2024/03/04 08:39:44;;;;;;;;;42.75;38.75;;;;;;;;4996112;28;45184;-81
2024/03/04 08:42:09;;;;;;;;;45.00;39.50;;;;;;;;4991067;28;45369;-79
2024/03/04 08:44:35;;;;;;;;;39.75;37.50;;;;;;;;4999076;28;45364;-80
2024/03/04 08:47:00;;;;;;;;;38.50;37.00;;;;;;;;4998330;28;45328;-79
2024/03/04 08:49:25;;;;;;;;;36.75;35.50;;;;;;;;4980874;28;45445;-81
2024/03/04 08:51:50;;;;;;;;;40.50;37.25;;;;;;;;4998467;28;45425;-79
2024/03/04 08:54:15;;;;;;;;;35.00;31.50;;;;;;;;4980340;28;48404;-79
2024/03/04 08:56:41;;;;;;;;;35.75;30.75;;;;;;;;4982596;28;45362;-80
2024/03/04 08:59:06;;;;;;;;;33.50;30.25;;;;;;;;4986370;28;45378;-81
2024/03/04 09:01:32;;;;;;;;;26.33;23.67;;;;;;;;4981351;28;47196;-81
2024/03/04 09:03:57;;;;;;;;;34.00;29.75;;;;;;;;4999223;28;45646;-80
2024/03/04 09:06:24;;;;;;;;;30.25;28.75;;;;;;;;4984235;28;45449;-80
2024/03/04 09:08:50;;;;;;;;;32.25;31.75;;;;;;;;4995915;28;46449;-80
2024/03/04 09:11:15;;;;;;;;;36.00;30.25;;;;;;;;4980022;28;45964;-80
2024/03/04 09:13:40;;;;;;;;;32.50;32.25;;;;;;;;4973738;28;47165;-80
2024/03/04 09:16:06;;;;;;;;;29.25;27.25;;;;;;;;4982630;28;45273;-80
2024/03/04 09:18:33;;;;;;;;;29.33;27.00;;;;;;;;5001227;28;45596;-80
2024/03/04 09:20:58;;;;;;;;;45.25;35.75;;;;;;;;5002488;28;45232;-80
2024/03/04 09:23:24;;;;;;;;;31.00;29.00;;;;;;;;4984504;28;47080;-80
2024/03/04 09:25:49;;;;;;;;;26.33;19.00;;;;;;;;5003235;28;45379;-81
2024/03/04 09:28:14;;;;;;;;;55.00;42.25;;;;;;;;5002427;28;45471;-81
2024/03/04 09:30:39;;;;;;;;;23.00;20.67;;;;;;;;5002068;28;45538;-81
2024/03/04 09:33:04;;;;;;;;;18.33;18.33;;;;;;;;4985355;28;47135;-82
2024/03/04 09:35:30;;;;;;;;;26.00;23.00;;;;;;;;5002518;28;45327;-80
2024/03/04 09:37:55;;;;;;;;;25.33;24.00;;;;;;;;4984194;28;45411;-82
2024/03/04 09:40:21;;;;;;;;;23.00;20.33;;;;;;;;5002233;28;45567;-81
2024/03/04 09:42:49;;;;;;;;;19.00;11.33;;;;;;;;5001807;28;46092;-80
2024/03/04 09:45:17;;;;;;;;;12.67;10.67;;;;;;;;4984168;28;45283;-81
2024/03/04 09:47:45;;;;;;;;;10.00;10.00;;;;;;;;5002026;28;45306;-80
2024/03/04 09:50:10;;;;;;;;;9.00;9.00;;;;;;;;5002059;28;45641;-80
2024/03/04 09:52:37;;;;;;;;;9.00;9.00;;;;;;;;4978190;28;48246;-79
2024/03/04 09:55:04;;;;;;;;;8.67;8.67;;;;;;;;4980892;28;45516;-81
2024/03/04 09:57:29;;;;;;;;;11.00;8.67;;;;;;;;4991750;28;45338;-80
2024/03/04 09:59:55;;;;;;;;;10.33;8.67;;;;;;;;5021519;28;45346;-82
2024/03/04 10:02:20;;;;;;;;;12.00;12.00;;;;;;;;5021506;28;45404;-79
2024/03/04 10:04:46;;;;;;;;;12.00;9.33;;;;;;;;5003722;28;45841;-79
2024/03/04 10:07:11;;;;;;;;;7.00;7.00;;;;;;;;5020619;28;46030;-79
2024/03/04 10:09:36;;;;;;;;;4.00;4.00;;;;;;;;5021184;28;45448;-79
2024/03/04 10:12:07;;;;;;;;;6.33;6.33;;;;;;;;5020383;28;45730;-78
2024/03/04 10:14:32;;;;;;;;;6.33;6.33;;;;;;;;5021278;28;45391;-79
2024/03/04 10:16:57;;;;;;;;;7.33;6.33;;;;;;;;5020913;28;45230;-79
2024/03/04 10:19:22;;;;;;;;;5.33;4.33;;;;;;;;5021107;28;45406;-79
2024/03/04 10:21:47;;;;;;;;;3.00;3.00;;;;;;;;5003202;28;48157;-79
2024/03/04 10:24:14;;;;;;;;;4.00;4.00;;;;;;;;5021273;28;45381;-78
2024/03/04 10:26:59;;;;;;;;;5.00;4.00;;;;;;;;5003071;28;45361;-79
2024/03/04 10:29:25;;;;;;;;;4.00;4.00;;;;;;;;5019448;28;45483;-80
2024/03/04 10:31:51;;;;;;;;;5.00;5.00;;;;;;;;5021093;28;45234;-78
2024/03/04 10:34:16;;;;;;;;;5.00;5.00;;;;;;;;5003326;28;45187;-79
2024/03/04 10:36:44;;;;;;;;;5.00;5.00;;;;;;;;5012961;28;45436;-80
2024/03/04 10:39:16;;;;;;;;;4.00;4.00;;;;;;;;4975564;28;46256;-80
2024/03/04 10:41:46;;;;;;;;;2.00;2.00;;;;;;;;5001177;28;45540;-80
2024/03/04 10:44:25;;;;;;;;;3.67;2.00;;;;;;;;5001227;28;45458;-80
2024/03/04 10:46:52;;;;;;;;;3.67;3.00;;;;;;;;5001299;28;45418;-80
2024/03/04 10:49:17;;;;;;;;;2.00;2.00;;;;;;;;5000899;28;45493;-80
2024/03/04 10:51:43;;;;;;;;;3.00;2.00;;;;;;;;4983321;28;46941;-81
2024/03/04 10:54:08;;;;;;;;;1.00;1.00;;;;;;;;5000984;28;45470;-79
2024/03/04 10:56:34;;;;;;;;;2.33;2.33;;;;;;;;5001799;28;45206;-79
2024/03/04 10:59:01;;;;;;;;;2.33;2.33;;;;;;;;5003205;28;46072;-81
2024/03/04 11:01:27;;;;;;;;;2.67;1.00;;;;;;;;5002310;28;47887;-80
2024/03/04 11:03:57;;;;;;;;;3.00;3.00;;;;;;;;5020137;28;45481;-82
2024/03/04 11:06:24;;;;;;;;;2.33;2.33;;;;;;;;5002531;28;45257;-82
2024/03/04 11:08:52;;;;;;;;;2.00;2.00;;;;;;;;5002882;28;46225;-82
2024/03/04 11:11:20;;;;;;;;;2.00;2.00;;;;;;;;5020555;28;45546;-81
2024/03/04 11:14:06;;;;;;;;;4.00;3.00;;;;;;;;5020663;28;45326;-80
2024/03/04 11:16:45;;;;;;;;;2.00;2.00;;;;;;;;5020658;28;45376;-81
2024/03/04 11:19:16;;;;;;;;;2.00;2.00;;;;;;;;5019953;28;45408;-78
2024/03/04 11:21:42;;;;;;;;;2.00;2.00;;;;;;;;5020658;28;45286;-81
2024/03/04 11:24:08;;;;;;;;;2.00;2.00;;;;;;;;5002686;28;45377;-79
2024/03/04 11:26:35;;;;;;;;;3.00;2.00;;;;;;;;5019367;28;45218;-79
2024/03/04 11:29:00;;;;;;;;;1.33;1.33;;;;;;;;5012029;28;45458;-80
2024/03/04 11:31:26;;;;;;;;;2.00;2.00;;;;;;;;4982054;28;48065;-81
2024/03/04 11:34:01;;;;;;;;;1.67;1.67;;;;;;;;4981891;28;45383;-82
2024/03/04 11:36:26;;;;;;;;;3.00;3.00;;;;;;;;5000703;28;45385;-81
2024/03/04 11:38:52;;;;;;;;;2.00;2.00;;;;;;;;5000378;28;45368;-80
2024/03/04 11:41:36;;;;;;;;;1.33;1.33;;;;;;;;4999972;28;45382;-80
2024/03/04 11:44:01;;;;;;;;;2.00;2.00;;;;;;;;5000322;28;45334;-80
2024/03/04 11:46:26;;;;;;;;;3.00;3.00;;;;;;;;5000513;28;45319;-81
2024/03/04 11:48:52;;;;;;;;;3.00;2.67;;;;;;;;4982331;28;46195;-80
2024/03/04 11:51:36;;;;;;;;;2.67;2.67;;;;;;;;4982379;28;47027;-80
2024/03/04 11:54:04;;;;;;;;;3.00;2.00;;;;;;;;5000232;28;45353;-78
2024/03/04 11:56:30;;;;;;;;;1.33;1.33;;;;;;;;5000946;28;45390;-80
2024/03/04 11:58:55;;;;;;;;;3.67;3.00;;;;;;;;5020150;28;45898;-78
2024/03/04 12:01:21;;;;;;;;;3.00;1.33;;;;;;;;5002161;28;47130;-78
2024/03/04 12:03:52;;;;;;;;;3.00;3.00;;;;;;;;5019724;28;45238;-78
2024/03/04 12:06:20;;;;;;;;;6.00;6.00;;;;;;;;5012655;28;45511;-79
2024/03/04 12:08:45;;;;;;;;;3.00;1.00;;;;;;;;5011878;28;45382;-78
2024/03/04 12:11:12;;;;;;;;;3.00;3.00;;;;;;;;4995399;28;47426;-79
2024/03/04 12:13:37;;;;;;;;;5.33;4.33;;;;;;;;5004462;28;45175;-79
2024/03/04 12:16:04;;;;;;;;;4.00;4.00;;;;;;;;4981545;28;45356;-79
2024/03/04 12:18:30;;;;;;;;;3.67;3.67;;;;;;;;4998856;28;45463;-79
2024/03/04 12:20:55;;;;;;;;;3.33;3.33;;;;;;;;4981380;28;48476;-79
2024/03/04 12:23:20;;;;;;;;;2.67;2.67;;;;;;;;4998491;28;45547;-76
2024/03/04 12:25:48;;;;;;;;;3.00;3.00;;;;;;;;4997112;28;45382;-79
2024/03/04 12:28:19;;;;;;;;;2.67;2.67;;;;;;;;4979667;28;45979;-78
2024/03/04 12:30:46;;;;;;;;;3.33;3.33;;;;;;;;4996673;28;46220;-81
2024/03/04 12:33:11;;;;;;;;;7.00;5.33;;;;;;;;4998140;28;45297;-80
2024/03/04 12:35:36;;;;;;;;;4.00;3.00;;;;;;;;4996423;28;45444;-79
2024/03/04 12:38:02;;;;;;;;;3.33;3.00;;;;;;;;4981320;28;46952;-78
2024/03/04 12:40:27;;;;;;;;;2.00;2.00;;;;;;;;5004917;28;45877;-81
2024/03/04 12:43:01;;;;;;;;;1.33;1.33;;;;;;;;4988946;28;45390;-81
2024/03/04 12:45:26;;;;;;;;;2.33;2.33;;;;;;;;5009092;28;45322;-83
2024/03/04 12:47:52;;;;;;;;;2.67;2.33;;;;;;;;5004142;28;46057;-81
2024/03/04 12:50:29;;;;;;;;;3.00;3.00;;;;;;;;5010129;28;46306;-81
2024/03/04 12:52:54;;;;;;;;;1.67;1.67;;;;;;;;5007818;28;45359;-82
2024/03/04 12:55:20;;;;;;;;;2.67;2.67;;;;;;;;5015533;28;45218;-80
2024/03/04 12:57:46;;;;;;;;;1.00;1.00;;;;;;;;5004567;28;45162;-80
2024/03/04 13:00:16;;;;;;;;;0.67;0.67;;;;;;;;4980166;28;48355;-82
2024/03/04 13:02:42;;;;;;;;;2.00;2.00;;;;;;;;4999006;28;45402;-82
2024/03/04 13:05:07;;;;;;;;;2.33;2.33;;;;;;;;4981289;28;45524;-82
2024/03/04 13:07:32;;;;;;;;;0.67;0.67;;;;;;;;4981321;28;46807;-82
2024/03/04 13:09:58;;;;;;;;;2.33;0.00;;;;;;;;5007356;28;45589;-79
2024/03/04 13:12:23;;;;;;;;;1.00;1.00;;;;;;;;4998692;28;45510;-79
2024/03/04 13:14:48;;;;;;;;;1.67;1.67;;;;;;;;4998351;28;45376;-80
2024/03/04 13:17:13;;;;;;;;;1.00;0.00;;;;;;;;4992303;28;45367;-79
2024/03/04 13:19:38;;;;;;;;;2.00;2.00;;;;;;;;5019054;28;46623;-81
2024/03/04 13:22:04;;;;;;;;;1.00;1.00;;;;;;;;5000865;28;45367;-80
2024/03/04 13:24:29;;;;;;;;;1.00;1.00;;;;;;;;5010929;28;45427;-82
2024/03/04 13:26:54;;;;;;;;;1.67;1.67;;;;;;;;5013280;28;45295;-81
2024/03/04 13:29:20;;;;;;;;;0.75;0.75;;;;;;;;5001726;28;48048;-82
2024/03/04 13:31:45;;;;;;;;;7.67;6.00;;;;;;;;5019810;28;45285;-81
2024/03/04 13:34:10;;;;;;;;;3.00;2.00;;;;;;;;5001217;28;45248;-80
2024/03/04 13:36:35;;;;;;;;;1.00;1.00;;;;;;;;5023673;28;45423;-82
2024/03/04 13:39:00;;;;;;;;;1.75;1.75;;;;;;;;4994792;28;48368;-82
2024/03/04 13:41:26;;;;;;;;;0.00;0.00;;;;;;;;5000451;28;45342;-79
2024/03/04 13:43:51;;;;;;;;;0.00;0.00;;;;;;;;4998591;28;45295;-80
2024/03/04 13:46:16;;;;;;;;;0.00;0.00;;;;;;;;4998886;28;45618;-80
2024/03/04 13:48:41;;;;;;;;;0.25;0.25;;;;;;;;5000753;28;45347;-81
2024/03/04 13:51:06;;;;;;;;;1.00;1.00;;;;;;;;4988992;28;45326;-79
2024/03/04 13:53:32;;;;;;;;;0.00;0.00;;;;;;;;5001850;28;45298;-79
2024/03/04 13:55:57;;;;;;;;;0.00;0.00;;;;;;;;5001599;28;45355;-78
2024/03/04 13:58:23;;;;;;;;;0.50;0.00;;;;;;;;5016025;28;45467;-80
2024/03/04 14:00:48;;;;;;;;;0.50;0.50;;;;;;;;5007246;28;45324;-80
2024/03/04 14:03:13;;;;;;;;;1.00;1.00;;;;;;;;5002482;28;45266;-80
2024/03/04 14:05:39;;;;;;;;;2.25;2.00;;;;;;;;4984510;28;45957;-80
2024/03/04 14:08:04;;;;;;;;;1.25;1.00;;;;;;;;4983724;28;47090;-80
2024/03/04 14:10:29;;;;;;;;;1.00;0.00;;;;;;;;5001521;28;45359;-80
2024/03/04 14:12:55;;;;;;;;;0.50;0.50;;;;;;;;5002094;28;45747;-80
2024/03/04 14:15:20;;;;;;;;;0.50;0.50;;;;;;;;4983943;28;46090;-80
2024/03/04 14:17:46;;;;;;;;;1.00;1.00;;;;;;;;5000394;28;46102;-80
2024/03/04 14:20:11;;;;;;;;;1.00;1.00;;;;;;;;5001288;28;45397;-80